Time;durP1;ratioP1;P1;durP2;ratioP2;P2;SDS_P1;SDS_P2;PMS_P1;PMS_P2;Temp;Humidity;BMP_temperature;BMP_pressure;BME280_temperature;BME280_humidity;BME280_pressure;Samples;Min_cycle;Max_cycle;Signal;HPM_P1;HPM_P2
2022/03/31 00:00:21;;;;;;;;;46.25;36.50;;;;;11.22;61.19;99789.00;5048984;28;45434;-63
2022/03/31 00:02:47;;;;;;;;;44.00;37.25;;;;;11.18;61.61;99791.06;5048715;28;45445;-62
2022/03/31 00:05:13;;;;;;;;;42.25;35.50;;;;;11.16;60.91;99788.53;5051468;28;45370;-65
2022/03/31 00:08:00;;;;;;;;;46.75;35.75;;;;;11.13;60.84;99787.94;5052010;28;45258;-64
2022/03/31 00:10:32;;;;;;;;;41.50;31.25;;;;;11.11;60.52;99782.78;5049921;28;45570;-63
2022/03/31 00:12:59;;;;;;;;;40.25;34.50;;;;;11.12;61.14;99779.19;5048437;28;46297;-63
2022/03/31 00:15:27;;;;;;;;;43.00;35.25;;;;;11.18;60.93;99778.72;5050232;28;45295;-64
2022/03/31 00:17:54;;;;;;;;;40.75;34.00;;;;;11.24;60.02;99781.84;5051154;28;45308;-61
2022/03/31 00:20:20;;;;;;;;;44.25;34.25;;;;;11.27;60.42;99782.44;5052764;28;45515;-64
2022/03/31 00:22:45;;;;;;;;;44.50;33.50;;;;;11.28;60.25;99783.28;5048361;28;45301;-63
2022/03/31 00:25:11;;;;;;;;;40.25;33.75;;;;;11.25;59.29;99778.25;5050506;28;45348;-61
2022/03/31 00:27:38;;;;;;;;;38.00;30.25;;;;;11.20;59.09;99778.59;5051170;28;45383;-64
2022/03/31 00:30:06;;;;;;;;;38.25;30.50;;;;;11.14;59.57;99779.09;5049614;28;45394;-64
2022/03/31 00:32:33;;;;;;;;;34.75;28.50;;;;;11.14;59.85;99777.28;5047256;28;45461;-59
2022/03/31 00:34:59;;;;;;;;;29.75;28.50;;;;;11.16;59.20;99774.53;5050366;28;45520;-61
2022/03/31 00:37:25;;;;;;;;;39.00;30.00;;;;;11.17;58.93;99769.13;5051395;28;45533;-60
2022/03/31 00:39:50;;;;;;;;;37.75;32.50;;;;;11.14;59.08;99772.03;5051867;28;45400;-64
2022/03/31 00:42:16;;;;;;;;;40.50;31.00;;;;;11.14;59.64;99766.75;5046890;28;45491;-64
2022/03/31 00:44:44;;;;;;;;;22.50;19.50;;;;;11.18;59.15;99764.69;5048095;28;45798;-65
2022/03/31 00:47:10;;;;;;;;;39.00;32.50;;;;;11.21;59.78;99768.88;5032221;28;45305;-64
2022/03/31 00:49:35;;;;;;;;;39.75;33.00;;;;;11.21;59.37;99768.88;5045582;28;45749;-64
2022/03/31 00:52:01;;;;;;;;;41.50;32.75;;;;;11.18;59.59;99757.63;5048265;28;46030;-64
2022/03/31 00:54:27;;;;;;;;;37.25;33.75;;;;;11.18;59.41;99752.34;5044073;28;45391;-63
2022/03/31 00:56:55;;;;;;;;;37.25;27.75;;;;;11.21;59.22;99756.53;5049614;28;45453;-63
2022/03/31 00:59:21;;;;;;;;;39.25;30.75;;;;;11.23;59.85;99753.81;5052398;28;45475;-63
2022/03/31 01:01:48;;;;;;;;;41.25;30.75;;;;;11.24;59.92;99747.56;5048725;28;45749;-63
2022/03/31 01:04:14;;;;;;;;;42.25;31.50;;;;;11.25;59.92;99754.53;5047560;28;45581;-63
2022/03/31 01:06:44;;;;;;;;;42.75;31.00;;;;;11.23;59.07;99746.75;5050650;28;45310;-63
2022/03/31 01:09:10;;;;;;;;;42.00;34.25;;;;;11.18;59.73;99738.34;5049154;28;45574;-63
2022/03/31 01:11:36;;;;;;;;;40.25;35.00;;;;;11.06;59.20;99749.81;5051900;28;45887;-63
2022/03/31 01:14:01;;;;;;;;;45.00;34.50;;;;;10.96;59.93;99744.41;5054416;28;45498;-63
2022/03/31 01:16:29;;;;;;;;;34.00;26.75;;;;;10.89;60.08;99745.84;5043265;28;45450;-63
2022/03/31 01:18:54;;;;;;;;;29.50;29.50;;;;;10.85;60.12;99745.25;5043503;28;45538;-63
2022/03/31 01:21:20;;;;;;;;;38.25;34.00;;;;;10.81;60.13;99741.16;5043287;28;45330;-63
2022/03/31 01:23:46;;;;;;;;;42.75;35.50;;;;;10.77;60.10;99739.72;5043458;28;45300;-63
2022/03/31 01:26:12;;;;;;;;;39.00;33.50;;;;;10.69;60.37;99734.22;5043786;28;45246;-63
2022/03/31 01:28:43;;;;;;;;;37.00;31.75;;;;;10.65;60.54;99734.53;5043390;28;45365;-63
2022/03/31 01:31:10;;;;;;;;;38.50;32.75;;;;;10.61;60.61;99729.53;5043369;28;45430;-63
2022/03/31 01:33:36;;;;;;;;;44.00;35.50;;;;;10.58;61.08;99735.00;5043287;28;45423;-63
2022/03/31 01:36:07;;;;;;;;;46.50;37.50;;;;;10.55;61.41;99726.50;5043494;28;45325;-63
2022/03/31 01:38:33;;;;;;;;;46.50;38.00;;;;;10.53;61.17;99723.16;5043293;28;45570;-63
2022/03/31 01:40:59;;;;;;;;;48.75;39.00;;;;;10.50;61.46;99720.72;5049524;28;46118;-63
2022/03/31 01:43:26;;;;;;;;;49.00;38.00;;;;;10.49;61.47;99719.88;5042925;28;45328;-63
2022/03/31 01:45:53;;;;;;;;;51.00;38.00;;;;;10.50;61.42;99718.09;5043173;28;45424;-63
2022/03/31 01:48:19;;;;;;;;;45.75;34.50;;;;;10.48;61.65;99714.75;5043766;28;45225;-62
2022/03/31 01:50:45;;;;;;;;;48.00;38.50;;;;;10.44;61.55;99716.78;5062007;28;45271;-63
2022/03/31 01:53:11;;;;;;;;;47.75;38.25;;;;;10.43;61.88;99711.63;5063173;28;45367;-64
2022/03/31 01:55:38;;;;;;;;;48.00;39.50;;;;;10.42;61.65;99720.47;5045031;28;45341;-63
2022/03/31 01:58:04;;;;;;;;;51.75;39.00;;;;;10.38;61.87;99713.75;5063141;28;45472;-63
2022/03/31 02:00:30;;;;;;;;;49.50;38.50;;;;;10.30;62.46;99701.19;5057171;28;45237;-63
2022/03/31 02:02:55;;;;;;;;;52.25;38.25;;;;;10.28;62.57;99701.28;5042841;28;45207;-63
2022/03/31 02:05:21;;;;;;;;;52.50;41.00;;;;;10.23;62.55;99698.16;5042905;28;45301;-63
2022/03/31 02:07:47;;;;;;;;;54.25;42.75;;;;;10.22;62.82;99698.25;5043107;28;45472;-63
2022/03/31 02:10:13;;;;;;;;;44.00;37.50;;;;;10.19;62.81;99706.34;5042458;28;45336;-63
2022/03/31 02:12:40;;;;;;;;;50.50;38.00;;;;;10.12;62.66;99695.47;5042391;28;45416;-63
2022/03/31 02:15:08;;;;;;;;;38.00;31.75;;;;;10.08;63.07;99697.47;5042445;28;45285;-63
2022/03/31 02:17:34;;;;;;;;;50.00;40.25;;;;;10.03;63.07;99694.34;5042637;28;45632;-63
2022/03/31 02:19:59;;;;;;;;;51.50;40.75;;;;;10.00;62.97;99691.09;5042494;28;45536;-63
2022/03/31 02:22:25;;;;;;;;;53.25;39.25;;;;;9.98;63.34;99687.75;5042641;28;45313;-63
2022/03/31 02:24:50;;;;;;;;;54.75;37.50;;;;;9.97;63.54;99701.84;5042688;28;45280;-63
2022/03/31 02:27:16;;;;;;;;;52.50;42.00;;;;;9.91;62.99;99692.59;5042734;28;45154;-63
2022/03/31 02:29:41;;;;;;;;;58.00;42.25;;;;;9.87;63.36;99693.78;5042323;28;45312;-63
2022/03/31 02:32:07;;;;;;;;;54.25;40.75;;;;;9.83;63.93;99689.69;5042400;28;45357;-63
2022/03/31 02:34:34;;;;;;;;;58.00;44.75;;;;;9.80;63.51;99697.81;5042375;28;45239;-63
2022/03/31 02:36:59;;;;;;;;;51.50;38.50;;;;;9.78;63.56;99691.81;5042515;28;45340;-63
2022/03/31 02:39:25;;;;;;;;;55.25;44.75;;;;;9.73;63.95;99686.91;5042229;28;45301;-63
2022/03/31 02:41:50;;;;;;;;;54.50;40.75;;;;;9.72;63.94;99692.28;5042135;28;45388;-63
2022/03/31 02:44:16;;;;;;;;;51.25;40.75;;;;;9.66;63.56;99693.56;5042123;28;45251;-63
2022/03/31 02:46:42;;;;;;;;;47.75;37.50;;;;;9.66;63.85;99692.72;5042088;28;45422;-63
2022/03/31 02:49:08;;;;;;;;;62.75;45.00;;;;;9.67;64.13;99694.41;5047827;28;46302;-63
2022/03/31 02:51:34;;;;;;;;;53.25;42.00;;;;;9.68;64.26;99689.03;5062284;28;45273;-63
2022/03/31 02:56:43;;;;;;;;;58.50;44.00;;;;;9.70;63.77;99689.75;5061961;28;45303;-63
2022/03/31 02:59:09;;;;;;;;;56.50;41.25;;;;;9.72;63.97;99684.41;5061865;28;45340;-63
2022/03/31 03:01:35;;;;;;;;;58.25;41.00;;;;;9.72;64.03;99684.41;5047302;28;45348;-63
2022/03/31 03:04:01;;;;;;;;;58.25;43.00;;;;;9.75;63.63;99686.78;5042241;28;45302;-63
2022/03/31 03:06:26;;;;;;;;;65.25;48.75;;;;;9.75;63.62;99686.78;5042052;28;45531;-63
2022/03/31 03:08:54;;;;;;;;;58.50;46.25;;;;;9.75;63.70;99686.78;5041902;28;45257;-63
2022/03/31 03:11:20;;;;;;;;;58.00;44.00;;;;;9.75;63.72;99679.75;5041610;28;45303;-63
2022/03/31 03:13:46;;;;;;;;;59.75;45.50;;;;;9.73;63.93;99681.66;5041453;28;45312;-63
2022/03/31 03:16:12;;;;;;;;;57.75;42.00;;;;;9.73;63.50;99678.19;5041535;28;45452;-63
2022/03/31 03:18:39;;;;;;;;;54.00;40.75;;;;;9.71;63.70;99670.38;5041729;28;45343;-64
2022/03/31 03:21:06;;;;;;;;;63.50;48.75;;;;;9.72;63.51;99666.81;5041429;28;45202;-63
2022/03/31 03:23:33;;;;;;;;;60.25;45.75;;;;;9.70;63.82;99667.88;5041095;28;45134;-63
2022/03/31 03:26:01;;;;;;;;;61.50;44.75;;;;;9.70;63.49;99667.88;5041277;28;45210;-63
2022/03/31 03:28:27;;;;;;;;;57.00;44.50;;;;;9.68;63.31;99661.88;5041255;28;45446;-63
2022/03/31 03:30:52;;;;;;;;;61.75;45.00;;;;;9.66;63.84;99661.16;5041408;28;45385;-63
2022/03/31 03:33:18;;;;;;;;;64.75;46.50;;;;;9.64;63.92;99656.03;5041823;28;45337;-63
2022/03/31 03:35:44;;;;;;;;;58.00;45.50;;;;;9.61;63.83;99655.38;5041516;28;45304;-63
2022/03/31 03:38:09;;;;;;;;;58.75;45.00;;;;;9.59;63.69;99662.56;5041379;28;45570;-63
2022/03/31 03:40:35;;;;;;;;;57.50;44.00;;;;;9.55;64.03;99655.81;5042188;28;45388;-63
2022/03/31 03:43:00;;;;;;;;;60.50;44.25;;;;;9.53;64.29;99650.69;5041301;28;45311;-63
2022/03/31 03:45:26;;;;;;;;;63.00;43.75;;;;;9.50;63.98;99654.38;5041321;28;45506;-63
2022/03/31 03:47:51;;;;;;;;;57.50;43.50;;;;;9.48;64.01;99648.41;5041183;28;45991;-63
2022/03/31 03:50:18;;;;;;;;;60.50;44.50;;;;;9.48;63.88;99650.19;5054816;28;45360;-63
2022/03/31 03:52:43;;;;;;;;;59.50;46.00;;;;;9.48;64.33;99658.09;5060156;28;45212;-63
2022/03/31 03:55:10;;;;;;;;;61.75;46.50;;;;;9.45;63.59;99653.03;5059890;28;45156;-63
2022/03/31 03:57:36;;;;;;;;;49.50;42.25;;;;;9.44;63.73;99654.81;5059626;28;46070;-63
2022/03/31 04:00:03;;;;;;;;;63.50;43.25;;;;;9.42;63.99;99661.16;5057652;28;45942;-62
2022/03/31 04:02:28;;;;;;;;;57.75;45.25;;;;;9.42;63.64;99664.63;5039685;28;45554;-63
2022/03/31 04:04:54;;;;;;;;;58.75;45.50;;;;;9.42;63.27;99663.78;5039774;28;45397;-63
2022/03/31 04:07:19;;;;;;;;;62.50;39.75;;;;;9.39;63.58;99658.72;5039545;28;46031;-63
2022/03/31 04:09:45;;;;;;;;;54.00;41.75;;;;;9.35;63.36;99657.28;5039373;28;45337;-63
2022/03/31 04:12:10;;;;;;;;;52.25;40.00;;;;;9.34;63.10;99656.44;5039373;28;45161;-63
2022/03/31 04:14:36;;;;;;;;;62.75;46.25;;;;;9.34;63.24;99658.22;5039524;28;45319;-63
2022/03/31 04:17:02;;;;;;;;;60.00;42.75;;;;;9.32;63.22;99660.09;5039260;28;45298;-63
2022/03/31 04:19:27;;;;;;;;;64.00;47.00;;;;;9.29;63.21;99653.28;5039241;28;45301;-63
2022/03/31 04:21:53;;;;;;;;;42.75;31.50;;;;;9.26;63.20;99655.31;5039508;28;45488;-63
2022/03/31 04:24:18;;;;;;;;;59.75;45.75;;;;;9.24;63.16;99658.03;5039376;28;45344;-63
2022/03/31 04:26:44;;;;;;;;;63.25;48.75;;;;;9.21;63.19;99656.47;5039273;28;45272;-63
2022/03/31 04:29:10;;;;;;;;;60.00;43.00;;;;;9.20;62.86;99652.16;5039038;28;45336;-63
2022/03/31 04:31:43;;;;;;;;;59.25;45.25;;;;;9.18;63.21;99669.81;5039170;28;45328;-63
2022/03/31 04:34:15;;;;;;;;;50.00;42.25;;;;;9.12;63.40;99662.38;5039119;28;45333;-63
2022/03/31 04:36:42;;;;;;;;;64.25;43.75;;;;;9.06;63.49;99665.41;5038317;28;45256;-63
2022/03/31 04:39:08;;;;;;;;;65.75;50.25;;;;;9.01;64.40;99667.56;5039595;28;45297;-63
2022/03/31 04:41:33;;;;;;;;;58.25;44.50;;;;;8.98;63.70;99673.00;5039103;28;45422;-63
2022/03/31 04:43:59;;;;;;;;;63.25;44.00;;;;;8.92;64.04;99668.16;5039193;28;45235;-64
2022/03/31 04:46:25;;;;;;;;;64.25;45.00;;;;;8.90;64.06;99663.03;5038977;28;45388;-63
2022/03/31 04:48:51;;;;;;;;;62.00;46.25;;;;;8.92;64.31;99662.91;4996664;28;1298252;-63
2022/03/31 04:51:16;;;;;;;;;68.75;47.50;;;;;8.94;64.38;99659.25;5060515;28;45318;-63
2022/03/31 04:53:42;;;;;;;;;61.00;45.75;;;;;8.96;63.78;99648.63;5060527;28;45561;-63
2022/03/31 04:56:07;;;;;;;;;60.50;48.00;;;;;8.94;64.00;99654.00;5060490;28;45399;-63
2022/03/31 04:58:33;;;;;;;;;62.00;44.75;;;;;8.91;63.92;99656.81;5059957;28;45348;-62
2022/03/31 05:00:58;;;;;;;;;67.50;48.00;;;;;8.88;63.65;99650.97;5050532;28;45347;-63
2022/03/31 05:03:24;;;;;;;;;59.25;46.50;;;;;8.86;63.73;99651.06;5037752;28;45278;-63
2022/03/31 05:05:49;;;;;;;;;62.50;47.00;;;;;8.84;63.56;99650.31;5060312;28;45425;-63
2022/03/31 05:08:15;;;;;;;;;62.25;47.25;;;;;8.81;63.77;99650.53;5060078;28;45214;-63
2022/03/31 05:10:42;;;;;;;;;57.75;46.75;;;;;8.78;63.72;99653.38;5060260;28;45178;-63
2022/03/31 05:13:08;;;;;;;;;67.50;47.75;;;;;8.77;63.83;99656.09;5060151;28;45404;-63
2022/03/31 05:15:33;;;;;;;;;63.75;47.75;;;;;8.78;64.17;99665.69;5059703;28;46232;-63
2022/03/31 05:17:59;;;;;;;;;65.50;47.00;;;;;8.78;64.05;99671.75;5059586;28;45395;-63
2022/03/31 05:20:25;;;;;;;;;61.00;48.00;;;;;8.78;64.04;99669.13;5060246;28;45455;-62
2022/03/31 05:22:51;;;;;;;;;60.67;45.33;;;;;8.78;63.95;99673.56;5060058;28;45536;-63
2022/03/31 05:25:16;;;;;;;;;68.33;49.33;;;;;8.78;64.19;99671.75;5051385;28;45920;-63
2022/03/31 05:27:46;;;;;;;;;65.50;48.00;;;;;8.76;64.01;99671.00;5059549;28;45408;-63
2022/03/31 05:30:13;;;;;;;;;63.00;46.50;;;;;8.73;63.95;99673.00;5058648;28;45285;-63
2022/03/31 05:32:39;;;;;;;;;60.33;47.00;;;;;8.73;64.28;99680.91;5056541;28;45295;-63
2022/03/31 05:35:06;;;;;;;;;63.00;49.67;;;;;8.72;64.66;99677.44;5059800;28;46182;-63
2022/03/31 05:37:33;;;;;;;;;67.67;52.00;;;;;8.71;64.31;99682.78;5042321;28;45405;-62
2022/03/31 05:40:01;;;;;;;;;65.33;50.33;;;;;8.68;64.74;99691.69;5040116;28;45408;-63
2022/03/31 05:42:26;;;;;;;;;63.67;47.33;;;;;8.69;64.56;99690.78;5040603;28;45346;-63
2022/03/31 05:44:52;;;;;;;;;70.00;48.33;;;;;8.72;65.04;99687.94;5039581;28;46101;-63
2022/03/31 05:47:17;;;;;;;;;73.33;54.67;;;;;8.75;65.12;99682.47;5041811;28;46293;-63
2022/03/31 05:49:43;;;;;;;;;70.67;53.00;;;;;8.78;64.90;99691.94;5053603;28;45474;-67
2022/03/31 05:52:08;;;;;;;;;68.67;50.67;;;;;8.80;64.90;99688.25;5063046;28;45521;-66
2022/03/31 05:54:34;;;;;;;;;73.33;53.00;;;;;8.81;64.98;99694.34;5062925;28;46338;-66
2022/03/31 05:56:59;;;;;;;;;75.00;55.33;;;;;8.80;65.26;99693.50;5062562;28;45398;-67
2022/03/31 05:59:25;;;;;;;;;73.00;53.67;;;;;8.83;65.00;99690.66;5043743;28;45553;-66
2022/03/31 06:01:50;;;;;;;;;73.67;54.00;;;;;8.84;64.69;99694.94;5046067;28;45467;-66
2022/03/31 06:04:20;;;;;;;;;73.67;54.67;;;;;8.87;65.00;99701.81;5042716;28;45413;-65
2022/03/31 06:06:47;;;;;;;;;79.00;56.33;;;;;8.89;65.13;99711.25;5042531;28;45301;-66
2022/03/31 06:09:14;;;;;;;;;86.67;62.00;;;;;8.92;65.12;99704.94;5051783;28;45415;-67
2022/03/31 06:11:40;;;;;;;;;87.00;62.00;;;;;8.90;64.88;99706.81;5042159;28;45477;-66
2022/03/31 06:14:05;;;;;;;;;75.00;55.33;;;;;8.91;65.22;99708.50;5042637;28;45441;-65
2022/03/31 06:16:31;;;;;;;;;74.00;52.33;;;;;8.90;64.99;99715.53;5041782;28;45424;-66
2022/03/31 06:18:56;;;;;;;;;77.33;57.33;;;;;8.93;65.19;99711.88;5042687;28;45334;-69
2022/03/31 06:21:22;;;;;;;;;75.33;54.33;;;;;8.99;65.38;99716.69;5042618;28;45469;-65
2022/03/31 06:23:48;;;;;;;;;75.00;56.00;;;;;9.08;65.16;99721.31;5049721;28;46680;-67
2022/03/31 06:26:14;;;;;;;;;80.00;56.67;;;;;9.13;64.92;99721.84;5045022;28;45318;-67
2022/03/31 06:28:40;;;;;;;;;75.00;52.67;;;;;9.16;64.66;99719.03;5042911;28;45222;-67
2022/03/31 06:31:05;;;;;;;;;75.00;53.00;;;;;9.15;64.46;99721.72;5041914;28;45305;-68
2022/03/31 06:33:30;;;;;;;;;74.33;54.00;;;;;9.15;64.63;99725.19;5042217;28;45286;-66
2022/03/31 06:35:56;;;;;;;;;57.00;41.67;;;;;9.18;63.86;99724.16;5041942;28;45292;-64
2022/03/31 06:38:21;;;;;;;;;76.67;52.00;;;;;9.13;64.50;99727.09;5042331;28;45521;-66
2022/03/31 06:41:06;;;;;;;;;69.67;51.33;;;;;9.15;64.13;99714.69;5043516;28;45245;-67
2022/03/31 06:43:36;;;;;;;;;69.67;51.67;;;;;9.18;64.03;99718.91;5042177;28;45522;-67
2022/03/31 06:46:02;;;;;;;;;75.00;52.33;;;;;9.20;63.91;99714.38;5041965;28;45287;-64
2022/03/31 06:48:29;;;;;;;;;64.67;51.67;;;;;9.21;63.75;99709.00;5042096;28;45552;-64
2022/03/31 06:50:56;;;;;;;;;66.00;51.00;;;;;9.32;63.93;99703.03;5062525;28;45186;-64
2022/03/31 06:53:21;;;;;;;;;69.67;54.33;;;;;9.44;63.38;99706.56;5061975;28;45213;-64
2022/03/31 06:55:47;;;;;;;;;68.33;49.33;;;;;9.54;63.26;99706.72;5062209;28;45458;-65
2022/03/31 06:58:12;;;;;;;;;59.00;46.33;;;;;9.52;63.17;99704.22;5061589;28;45232;-65
2022/03/31 07:00:38;;;;;;;;;59.25;50.00;;;;;9.55;62.77;99711.03;5035267;28;45411;-65
2022/03/31 07:03:03;;;;;;;;;71.25;53.25;;;;;9.57;62.93;99709.16;5040944;28;45397;-65
2022/03/31 07:05:29;;;;;;;;;70.33;49.67;;;;;9.61;62.78;99711.44;5041537;28;45327;-65
2022/03/31 07:07:54;;;;;;;;;68.67;51.00;;;;;9.66;62.91;99703.25;5042094;28;45498;-65
2022/03/31 07:10:21;;;;;;;;;71.00;53.00;;;;;9.74;63.02;99706.16;5048641;28;45246;-64
2022/03/31 07:12:47;;;;;;;;;66.50;50.50;;;;;9.84;62.66;99714.22;5061428;28;46436;-66
2022/03/31 07:15:13;;;;;;;;;64.67;50.00;;;;;9.88;62.30;99710.41;5061882;28;45578;-65
2022/03/31 07:17:39;;;;;;;;;66.33;53.00;;;;;9.84;62.74;99711.59;5061502;28;45411;-65
2022/03/31 07:20:04;;;;;;;;;71.00;52.33;;;;;9.78;62.33;99715.47;5061647;28;45504;-65
2022/03/31 07:22:32;;;;;;;;;65.67;46.67;;;;;9.77;62.61;99712.00;5061534;28;46183;-65
2022/03/31 07:24:58;;;;;;;;;66.75;48.00;;;;;9.75;62.53;99715.72;5061658;28;45185;-66
2022/03/31 07:27:23;;;;;;;;;64.25;48.25;;;;;9.70;63.04;99717.81;5061318;28;45447;-64
2022/03/31 07:29:49;;;;;;;;;66.00;48.25;;;;;9.65;63.28;99718.19;5061906;28;45269;-65
2022/03/31 07:32:14;;;;;;;;;64.50;48.25;;;;;9.68;63.49;99720.56;5061274;28;46047;-65
2022/03/31 07:34:40;;;;;;;;;70.75;50.50;;;;;9.71;63.19;99722.13;5061621;28;45335;-65
2022/03/31 07:37:05;;;;;;;;;65.00;49.00;;;;;9.76;63.37;99731.38;5061587;28;45532;-65
2022/03/31 07:39:33;;;;;;;;;70.25;51.25;;;;;9.71;63.27;99722.97;5054778;28;45244;-65
2022/03/31 07:41:58;;;;;;;;;66.67;51.33;;;;;9.74;63.49;99722.78;5040928;28;46129;-65
2022/03/31 07:44:24;;;;;;;;;75.67;50.67;;;;;9.77;63.96;99730.44;5041497;28;45464;-65
2022/03/31 07:46:51;;;;;;;;;67.67;53.33;;;;;9.79;63.64;99732.94;5041399;28;45325;-65
2022/03/31 07:49:17;;;;;;;;;70.00;49.67;;;;;9.71;64.12;99722.97;5048435;28;45545;-65
2022/03/31 07:51:43;;;;;;;;;64.33;52.00;;;;;9.62;64.32;99736.78;5061058;28;46286;-64
2022/03/31 07:54:08;;;;;;;;;70.00;50.00;;;;;9.53;64.41;99740.06;5061532;28;45393;-64
2022/03/31 07:56:35;;;;;;;;;60.25;48.00;;;;;9.47;64.84;99741.34;5061109;28;45479;-64
2022/03/31 07:59:01;;;;;;;;;58.25;41.75;;;;;9.39;65.62;99738.41;5061321;28;45261;-66
2022/03/31 08:01:26;;;;;;;;;63.25;46.50;;;;;9.30;65.79;99746.09;5047061;28;45453;-65
2022/03/31 08:03:53;;;;;;;;;65.00;49.25;;;;;9.18;65.72;99748.66;5041123;28;45313;-65
2022/03/31 08:06:18;;;;;;;;;56.75;38.00;;;;;9.10;65.92;99758.84;5041159;28;45273;-65
2022/03/31 08:08:44;;;;;;;;;34.50;21.00;;;;;8.93;65.62;99760.00;5041017;28;45250;-64
2022/03/31 08:11:09;;;;;;;;;31.00;25.75;;;;;8.78;65.54;99770.69;5039909;28;45354;-64
2022/03/31 08:13:35;;;;;;;;;23.75;21.25;;;;;8.54;65.30;99771.41;5040771;28;45244;-66
2022/03/31 08:16:00;;;;;;;;;27.00;18.50;;;;;8.35;64.90;99782.25;5040978;28;45256;-65
2022/03/31 08:18:28;;;;;;;;;18.75;17.75;;;;;8.23;65.45;99788.28;5041155;28;45261;-65
2022/03/31 08:20:55;;;;;;;;;8.75;8.75;;;;;8.13;64.55;99793.25;5040556;28;46161;-64
2022/03/31 08:23:21;;;;;;;;;16.75;11.75;;;;;8.01;64.46;99808.94;5040775;28;45312;-64
2022/03/31 08:25:46;;;;;;;;;16.75;15.50;;;;;7.87;64.77;99801.94;5040856;28;45511;-65
2022/03/31 08:28:12;;;;;;;;;22.50;18.25;;;;;7.81;64.26;99807.56;5040765;28;45286;-64
2022/03/31 08:30:38;;;;;;;;;14.75;13.75;;;;;7.70;63.77;99805.63;5040700;28;45336;-64
2022/03/31 08:33:03;;;;;;;;;21.75;10.50;;;;;7.62;63.89;99802.63;5040681;28;45311;-64
2022/03/31 08:35:29;;;;;;;;;16.00;9.00;;;;;7.54;63.67;99818.00;5040784;28;45451;-64
2022/03/31 08:37:54;;;;;;;;;12.75;11.75;;;;;7.41;64.14;99820.50;5040866;28;45467;-64
2022/03/31 08:40:20;;;;;;;;;9.25;9.00;;;;;7.32;63.98;99820.22;5040964;28;46162;-65
2022/03/31 08:42:46;;;;;;;;;12.50;12.00;;;;;7.32;64.30;99820.22;5040580;28;45388;-64
2022/03/31 08:45:15;;;;;;;;;17.00;13.50;;;;;7.37;64.23;99826.88;5040723;28;45258;-65
2022/03/31 08:47:44;;;;;;;;;14.00;11.00;;;;;7.38;64.53;99833.81;5022526;28;45606;-64
2022/03/31 08:50:10;;;;;;;;;7.00;6.00;;;;;7.39;64.29;99843.34;5054475;28;45417;-64
2022/03/31 08:52:36;;;;;;;;;12.50;10.50;;;;;7.43;64.16;99851.88;5060714;28;45276;-65
2022/03/31 08:55:01;;;;;;;;;15.00;10.75;;;;;7.43;64.20;99846.66;5060465;28;45300;-65
2022/03/31 08:57:42;;;;;;;;;11.00;8.00;;;;;7.41;64.50;99851.09;5060438;28;45363;-64
2022/03/31 09:00:10;;;;;;;;;11.00;10.75;;;;;7.42;64.82;99852.78;5057569;28;45387;-65
2022/03/31 09:02:37;;;;;;;;;12.25;7.75;;;;;7.35;64.62;99867.22;5040353;28;45256;-64
2022/03/31 09:05:06;;;;;;;;;7.75;7.00;;;;;7.26;65.25;99866.81;5040586;28;45460;-65
2022/03/31 09:07:32;;;;;;;;;7.75;7.00;;;;;7.21;65.23;99868.88;5040559;28;45258;-65
2022/03/31 09:09:57;;;;;;;;;8.00;7.00;;;;;7.19;64.57;99878.59;5040145;28;45431;-64
2022/03/31 09:12:26;;;;;;;;;8.50;7.00;;;;;7.10;65.00;99888.75;5040259;28;45380;-65
2022/03/31 09:14:52;;;;;;;;;7.75;7.75;;;;;7.05;65.09;99893.44;5040199;28;45239;-64
2022/03/31 09:17:19;;;;;;;;;14.25;9.75;;;;;6.99;65.52;99895.47;5040429;28;45618;-65
2022/03/31 09:19:44;;;;;;;;;9.50;9.50;;;;;6.93;65.65;99898.44;5040033;28;45450;-64
2022/03/31 09:22:10;;;;;;;;;4.50;3.00;;;;;6.94;66.10;99907.97;5040530;28;45392;-65
2022/03/31 09:24:36;;;;;;;;;6.75;6.75;;;;;6.93;65.60;99911.53;5043733;28;45300;-65
2022/03/31 09:27:03;;;;;;;;;6.00;3.50;;;;;6.95;65.41;99920.16;5043864;28;45245;-64
2022/03/31 09:29:31;;;;;;;;;5.25;5.00;;;;;6.90;65.47;99909.09;5025578;28;45402;-65
2022/03/31 09:32:10;;;;;;;;;7.50;5.00;;;;;6.87;65.92;99930.22;5043642;28;45488;-65
2022/03/31 09:34:41;;;;;;;;;7.00;6.25;;;;;6.85;65.83;99921.59;5043554;28;45321;-65
2022/03/31 09:37:07;;;;;;;;;10.50;10.00;;;;;6.91;65.78;99921.25;5043573;28;45304;-65
2022/03/31 09:39:32;;;;;;;;;8.00;7.00;;;;;6.88;64.66;99924.06;5044211;28;45391;-65
2022/03/31 09:41:58;;;;;;;;;7.00;7.00;;;;;6.85;64.78;99932.06;5043180;28;45229;-64
2022/03/31 09:44:25;;;;;;;;;8.75;6.25;;;;;6.79;65.21;99932.41;5043649;28;45167;-65
2022/03/31 09:46:52;;;;;;;;;3.00;3.00;;;;;6.83;65.90;99947.03;5043396;28;45351;-65
2022/03/31 09:49:25;;;;;;;;;10.00;7.00;;;;;6.85;65.90;99939.06;5049785;28;45356;-65
2022/03/31 09:51:56;;;;;;;;;10.00;8.75;;;;;6.90;65.87;99937.06;5063394;28;45328;-65
2022/03/31 09:54:25;;;;;;;;;10.75;7.75;;;;;6.97;66.35;99935.78;5063508;28;45240;-65
2022/03/31 09:56:51;;;;;;;;;10.00;7.25;;;;;7.03;65.35;99939.78;5062939;28;45550;-65
2022/03/31 09:59:17;;;;;;;;;7.00;7.00;;;;;7.08;65.48;99943.00;5063144;28;46218;-64
2022/03/31 10:01:43;;;;;;;;;8.50;7.00;;;;;7.05;64.88;99933.56;5047306;28;45358;-66
2022/03/31 10:04:11;;;;;;;;;7.50;7.00;;;;;7.09;65.55;99942.91;5043353;28;45342;-65
2022/03/31 10:06:39;;;;;;;;;6.00;6.00;;;;;7.13;65.10;99936.56;5042879;28;45543;-65
2022/03/31 10:09:06;;;;;;;;;11.25;8.00;;;;;7.18;65.71;99937.13;5042931;28;45291;-65
2022/03/31 10:11:37;;;;;;;;;5.75;5.75;;;;;7.25;65.36;99948.09;5042960;28;45399;-65
2022/03/31 10:14:08;;;;;;;;;10.50;8.00;;;;;7.35;65.37;99946.66;5042875;28;45333;-65
2022/03/31 10:16:47;;;;;;;;;6.00;6.00;;;;;7.40;64.86;99949.84;5042536;28;45307;-65
2022/03/31 10:19:35;;;;;;;;;4.50;4.50;;;;;7.35;64.00;99959.75;5042427;28;45483;-65
2022/03/31 10:22:09;;;;;;;;;9.25;6.75;;;;;7.33;64.18;99958.13;5034194;28;45369;-65
2022/03/31 10:24:41;;;;;;;;;11.75;8.25;;;;;7.26;64.29;99949.78;5062889;28;45402;-65
2022/03/31 10:27:14;;;;;;;;;6.75;5.00;;;;;7.27;64.76;99952.34;5062830;28;45455;-65
2022/03/31 10:29:44;;;;;;;;;6.50;6.00;;;;;7.28;64.91;99950.56;5062603;28;46322;-65
2022/03/31 10:32:23;;;;;;;;;6.00;5.00;;;;;7.33;64.63;99948.50;5062847;28;45505;-64
2022/03/31 10:34:54;;;;;;;;;5.25;3.50;;;;;7.37;65.05;99950.03;5062839;28;45361;-64
2022/03/31 10:37:38;;;;;;;;;2.00;2.00;;;;;7.51;64.16;99955.31;5044656;28;45439;-65
2022/03/31 10:40:09;;;;;;;;;2.00;1.75;;;;;7.56;63.81;99957.63;5051332;28;46013;-64
2022/03/31 10:42:37;;;;;;;;;2.00;2.00;;;;;7.52;63.47;99950.91;5042022;28;45329;-65
2022/03/31 10:45:09;;;;;;;;;1.75;1.75;;;;;7.51;63.58;99936.97;5042441;28;45216;-65
2022/03/31 10:47:36;;;;;;;;;4.50;3.00;;;;;7.52;63.57;99951.75;5042103;28;45443;-64
2022/03/31 10:50:03;;;;;;;;;1.25;1.25;;;;;7.51;63.37;99944.81;5054897;28;46433;-65
2022/03/31 10:52:30;;;;;;;;;5.00;2.75;;;;;7.53;64.37;99947.34;5062182;28;45250;-65
2022/03/31 10:55:14;;;;;;;;;5.00;4.75;;;;;7.66;64.27;99943.06;5062582;28;45482;-65
2022/03/31 10:57:44;;;;;;;;;1.75;1.75;;;;;7.84;63.70;99933.25;5062201;28;45510;-64
2022/03/31 11:00:17;;;;;;;;;1.00;1.00;;;;;7.99;63.10;99940.19;5059708;28;45359;-64
2022/03/31 11:02:44;;;;;;;;;4.00;4.00;;;;;8.13;63.26;99940.16;5042063;28;45415;-65
2022/03/31 11:05:10;;;;;;;;;3.00;3.00;;;;;8.27;62.48;99941.91;5042054;28;45285;-65
2022/03/31 11:07:36;;;;;;;;;4.00;3.00;;;;;8.39;62.43;99935.94;5042363;28;45237;-65
2022/03/31 11:10:11;;;;;;;;;3.00;2.50;;;;;8.47;60.70;99935.47;5041714;28;45201;-65
2022/03/31 11:12:38;;;;;;;;;4.25;3.25;;;;;8.55;61.61;99933.19;5041598;28;45203;-65
2022/03/31 11:15:16;;;;;;;;;6.25;5.25;;;;;8.80;61.33;99926.38;5041673;28;45200;-65
2022/03/31 11:17:43;;;;;;;;;4.25;4.25;;;;;8.97;60.42;99918.22;5042056;28;45290;-65
2022/03/31 11:20:17;;;;;;;;;6.75;4.00;;;;;9.05;60.54;99929.06;5041595;28;45558;-66
2022/03/31 11:22:54;;;;;;;;;7.00;4.00;;;;;9.00;60.04;99938.19;5041800;28;45357;-65
2022/03/31 11:25:21;;;;;;;;;6.25;5.00;;;;;8.89;59.61;99942.34;5041850;28;45265;-65
2022/03/31 11:27:48;;;;;;;;;9.00;7.50;;;;;8.76;59.80;99933.56;5041512;28;45283;-65